createdAt,value
2022-09-25T00:01:11.653Z,13.40
2022-09-25T00:03:41.065Z,13.40
2022-09-25T00:06:12.514Z,13.40
2022-09-25T00:08:41.377Z,13.40
2022-09-25T00:11:11.665Z,13.40
2022-09-25T00:13:42.735Z,13.40
2022-09-25T00:16:12.343Z,13.40
2022-09-25T00:18:58.410Z,13.40
2022-09-25T00:21:29.482Z,13.40
2022-09-25T00:23:58.610Z,13.40
2022-09-25T00:26:29.414Z,13.40
2022-09-25T00:29:01.283Z,13.40
2022-09-25T00:31:30.843Z,13.30
2022-09-25T00:34:01.758Z,13.40
2022-09-25T00:36:31.302Z,13.40
2022-09-25T00:39:00.308Z,13.40
2022-09-25T00:41:31.878Z,13.40
2022-09-25T00:44:03.810Z,13.40
2022-09-25T00:46:35.630Z,13.40
2022-09-25T00:49:06.232Z,13.00
2022-09-25T00:51:41.019Z,13.40
2022-09-25T00:54:14.512Z,13.40
2022-09-25T00:56:46.830Z,13.40
2022-09-25T00:59:19.225Z,13.40
2022-09-25T01:01:48.489Z,13.40
2022-09-25T01:04:18.269Z,13.40
2022-09-25T01:06:46.925Z,13.40
2022-09-25T01:09:15.462Z,13.40
2022-09-25T01:11:45.109Z,13.40
2022-09-25T01:14:17.240Z,13.40
2022-09-25T01:16:54.346Z,13.40
2022-09-25T01:19:33.239Z,13.40
2022-09-25T01:22:11.574Z,13.40
2022-09-25T01:24:51.637Z,13.30
2022-09-25T01:27:41.230Z,13.30
2022-09-25T01:30:14.457Z,13.30
2022-09-25T01:32:59.391Z,13.30
2022-09-25T01:35:40.796Z,13.30
2022-09-25T01:38:23.022Z,13.30
2022-09-25T01:40:59.747Z,13.30
2022-09-25T01:43:36.252Z,13.30
2022-09-25T01:46:12.911Z,13.30
2022-09-25T01:48:43.659Z,13.30
2022-09-25T01:51:17.353Z,13.30
2022-09-25T01:53:49.882Z,13.30
2022-09-25T01:56:24.834Z,13.30
2022-09-25T01:58:57.142Z,13.30
2022-09-25T02:01:30.550Z,13.30
2022-09-25T02:04:03.893Z,13.30
2022-09-25T02:06:34.783Z,13.30
2022-09-25T02:09:07.627Z,13.30
2022-09-25T02:11:41.144Z,13.30
2022-09-25T02:14:16.562Z,13.30
2022-09-25T02:16:51.276Z,13.30
2022-09-25T02:19:38.011Z,13.30
2022-09-25T02:22:11.655Z,13.30
2022-09-25T02:24:48.897Z,13.30
2022-09-25T02:27:18.284Z,13.30
2022-09-25T02:29:46.875Z,13.30
2022-09-25T02:32:19.377Z,13.30
2022-09-25T02:34:48.185Z,13.30
2022-09-25T02:37:18.566Z,13.30
2022-09-25T02:39:51.227Z,13.30
2022-09-25T02:42:30.347Z,13.30
2022-09-25T02:45:18.213Z,13.30
2022-09-25T02:47:58.701Z,13.30
2022-09-25T02:50:30.713Z,13.30
2022-09-25T02:53:06.062Z,13.30
2022-09-25T02:55:41.084Z,13.20
2022-09-25T02:58:15.809Z,13.20
2022-09-25T03:00:48.155Z,13.20
2022-09-25T03:03:20.657Z,13.20
2022-09-25T03:05:50.578Z,13.20
2022-09-25T03:08:39.385Z,13.20
2022-09-25T03:11:10.132Z,13.20
2022-09-25T03:13:39.186Z,13.20
2022-09-25T03:16:12.584Z,13.20
2022-09-25T03:18:42.558Z,13.20
2022-09-25T03:21:11.190Z,13.20
2022-09-25T03:23:39.694Z,13.20
2022-09-25T03:26:08.601Z,13.20
2022-09-25T03:28:37.321Z,13.20
2022-09-25T03:31:08.035Z,13.20
2022-09-25T03:33:38.365Z,13.20
2022-09-25T03:36:11.796Z,13.20
2022-09-25T03:38:41.947Z,13.20
2022-09-25T03:41:11.769Z,13.20
2022-09-25T03:43:42.161Z,13.20
2022-09-25T03:46:13.343Z,13.20
2022-09-25T03:48:42.982Z,13.20
2022-09-25T03:51:13.298Z,13.20
2022-09-25T03:53:42.332Z,13.20
2022-09-25T03:56:14.204Z,13.20
2022-09-25T03:58:42.798Z,13.20
2022-09-25T04:01:11.968Z,13.20
2022-09-25T04:03:40.576Z,13.20
2022-09-25T04:06:09.870Z,13.20
2022-09-25T04:08:39.708Z,13.20
2022-09-25T04:11:08.353Z,13.30
2022-09-25T04:13:37.999Z,13.30
2022-09-25T04:16:08.290Z,13.30
2022-09-25T04:18:37.610Z,13.30
2022-09-25T04:21:08.266Z,13.30
2022-09-25T04:23:38.800Z,13.30
2022-09-25T04:26:09.488Z,13.30
2022-09-25T04:28:38.209Z,13.30
2022-09-25T04:31:07.080Z,13.30
2022-09-25T04:33:47.459Z,13.30
2022-09-25T04:36:16.790Z,13.30
2022-09-25T04:38:45.526Z,13.30
2022-09-25T04:41:16.051Z,13.30
2022-09-25T04:43:44.531Z,13.30
2022-09-25T04:46:20.993Z,13.30
2022-09-25T04:48:51.010Z,13.30
2022-09-25T04:51:19.663Z,13.30
2022-09-25T04:53:48.157Z,13.30
2022-09-25T04:56:18.049Z,13.20
2022-09-25T04:58:48.017Z,13.20
2022-09-25T05:01:18.085Z,13.20
2022-09-25T05:03:49.126Z,13.10
2022-09-25T05:06:17.744Z,13.10
2022-09-25T05:08:49.293Z,13.10
2022-09-25T05:11:19.276Z,13.00
2022-09-25T05:13:51.295Z,13.00
2022-09-25T05:16:20.366Z,13.00
2022-09-25T05:18:48.979Z,13.00
2022-09-25T05:21:17.421Z,13.00
2022-09-25T05:23:45.992Z,13.00
2022-09-25T05:26:14.459Z,13.00
2022-09-25T05:28:44.260Z,13.00
2022-09-25T05:31:13.146Z,13.00
2022-09-25T05:33:41.624Z,13.00
2022-09-25T05:36:11.119Z,13.00
2022-09-25T05:38:41.214Z,13.00
2022-09-25T05:41:11.351Z,13.00
2022-09-25T05:43:41.375Z,13.00
2022-09-25T05:46:12.116Z,13.00
2022-09-25T05:48:41.194Z,13.00
2022-09-25T05:51:10.406Z,12.90
2022-09-25T05:53:39.174Z,13.00
2022-09-25T05:56:08.152Z,12.90
2022-09-25T05:58:36.861Z,12.90
2022-09-25T06:01:07.018Z,12.90
2022-09-25T06:03:36.857Z,12.90
2022-09-25T06:06:05.773Z,12.90
2022-09-25T06:08:35.412Z,12.90
2022-09-25T06:11:04.925Z,12.90
2022-09-25T06:13:34.747Z,12.90
2022-09-25T06:16:05.399Z,12.90
2022-09-25T06:18:34.273Z,12.80
2022-09-25T06:21:06.130Z,12.80
2022-09-25T06:23:34.718Z,12.80
2022-09-25T06:26:03.795Z,12.80
2022-09-25T06:28:32.889Z,12.80
2022-09-25T06:31:02.083Z,12.80
2022-09-25T06:33:31.164Z,12.80
2022-09-25T06:36:00.385Z,12.80
2022-09-25T06:38:32.757Z,12.80
2022-09-25T06:41:01.711Z,12.80
2022-09-25T06:43:31.276Z,12.80
2022-09-25T06:46:03.703Z,12.80
2022-09-25T06:48:32.551Z,12.80
2022-09-25T06:51:01.948Z,12.80
2022-09-25T06:53:31.866Z,12.80
2022-09-25T06:56:00.820Z,12.80
2022-09-25T06:58:30.506Z,12.80
2022-09-25T07:00:59.420Z,12.80
2022-09-25T07:03:47.335Z,12.80
2022-09-25T07:06:18.381Z,12.80
2022-09-25T07:08:49.052Z,12.80
2022-09-25T07:11:19.795Z,12.80
2022-09-25T07:13:54.881Z,12.80
2022-09-25T07:16:25.200Z,12.80
2022-09-25T07:18:55.142Z,12.80
2022-09-25T07:21:25.095Z,12.80
2022-09-25T07:23:54.907Z,12.90
2022-09-25T07:26:25.807Z,12.90
2022-09-25T07:28:56.507Z,12.90
2022-09-25T07:31:26.854Z,12.90
2022-09-25T07:33:55.986Z,12.90
2022-09-25T07:36:24.534Z,13.00
2022-09-25T07:38:54.930Z,13.10
2022-09-25T07:41:24.172Z,13.10
2022-09-25T07:44:06.351Z,13.10
2022-09-25T07:46:43.432Z,13.10
2022-09-25T07:49:11.946Z,13.10
2022-09-25T07:51:40.449Z,13.10
2022-09-25T07:54:10.392Z,13.20
2022-09-25T07:56:39.122Z,13.20
2022-09-25T07:59:07.576Z,13.20
2022-09-25T08:01:39.648Z,13.20
2022-09-25T08:04:12.268Z,13.20
2022-09-25T08:06:40.844Z,13.20
2022-09-25T08:09:12.269Z,13.20
2022-09-25T08:11:41.070Z,13.10
2022-09-25T08:14:09.743Z,13.10
2022-09-25T08:16:38.257Z,13.10
2022-09-25T08:19:06.752Z,13.10
2022-09-25T08:21:35.603Z,13.10
2022-09-25T08:24:04.502Z,13.10
2022-09-25T08:26:34.391Z,13.10
2022-09-25T08:29:03.298Z,13.20
2022-09-25T08:31:31.791Z,13.10
2022-09-25T08:34:21.104Z,13.10
2022-09-25T08:36:50.797Z,13.20
2022-09-25T08:39:19.530Z,13.20
2022-09-25T08:41:52.454Z,13.20
2022-09-25T08:44:27.088Z,13.20
2022-09-25T08:47:19.449Z,13.20
2022-09-25T08:50:02.157Z,13.30
2022-09-25T08:52:31.151Z,13.30
2022-09-25T08:54:59.913Z,13.30
2022-09-25T08:57:37.312Z,13.30
2022-09-25T09:00:10.021Z,13.30
2022-09-25T09:02:42.557Z,13.30
2022-09-25T09:05:18.633Z,13.30
2022-09-25T09:07:53.397Z,13.30
2022-09-25T09:10:31.272Z,13.30
2022-09-25T09:13:06.350Z,13.40
2022-09-25T09:15:40.145Z,13.40
2022-09-25T09:18:19.981Z,13.50
2022-09-25T09:20:53.321Z,13.50
2022-09-25T09:23:23.486Z,13.50
2022-09-25T09:26:01.190Z,13.50
2022-09-25T09:29:07.304Z,13.50
2022-09-25T09:31:46.743Z,13.60
2022-09-25T09:34:53.644Z,13.60
2022-09-25T09:37:31.566Z,13.70
2022-09-25T09:40:09.350Z,13.80
2022-09-25T09:42:45.417Z,13.90
2022-09-25T09:45:21.531Z,13.90
2022-09-25T09:47:57.296Z,13.90
2022-09-25T09:50:41.823Z,14.00
2022-09-25T09:53:18.397Z,14.00
2022-09-25T09:55:51.504Z,14.00
2022-09-25T09:58:24.069Z,14.00
2022-09-25T10:00:53.958Z,14.00
2022-09-25T10:03:25.470Z,14.10
2022-09-25T10:05:58.731Z,14.10
2022-09-25T10:08:27.901Z,14.10
2022-09-25T10:10:59.256Z,14.10
2022-09-25T10:13:33.219Z,14.10
2022-09-25T10:16:11.318Z,14.10
2022-09-25T10:18:43.741Z,14.20
2022-09-25T10:21:15.079Z,14.30
2022-09-25T10:23:50.433Z,14.30
2022-09-25T10:26:28.402Z,14.40
2022-09-25T10:28:58.730Z,14.50
2022-09-25T10:31:32.191Z,14.50
2022-09-25T10:34:03.659Z,14.60
2022-09-25T10:36:52.242Z,14.60
2022-09-25T10:39:44.588Z,14.70
2022-09-25T10:42:33.726Z,14.70
2022-09-25T10:45:17.285Z,14.80
2022-09-25T10:48:06.927Z,14.80
2022-09-25T10:50:36.968Z,14.90
2022-09-25T10:53:06.852Z,14.90
2022-09-25T10:55:37.983Z,14.90
2022-09-25T10:58:13.848Z,14.90
2022-09-25T11:00:53.079Z,14.80
2022-09-25T11:03:26.223Z,14.80
2022-09-25T11:05:57.283Z,14.90
2022-09-25T11:08:30.140Z,14.90
2022-09-25T11:11:02.262Z,14.90
2022-09-25T11:13:37.987Z,15.00
2022-09-25T11:16:10.233Z,15.10
2022-09-25T11:18:42.989Z,15.20
2022-09-25T11:21:21.568Z,15.40
2022-09-25T11:24:04.594Z,15.40
2022-09-25T11:26:37.657Z,15.50
2022-09-25T11:29:12.633Z,15.50
2022-09-25T11:31:44.649Z,15.50
2022-09-25T11:34:25.053Z,15.40
2022-09-25T11:37:01.295Z,15.40
2022-09-25T11:39:53.284Z,15.40
2022-09-25T11:42:29.808Z,15.40
2022-09-25T11:45:08.200Z,15.40
2022-09-25T11:47:44.529Z,15.30
2022-09-25T11:50:17.010Z,15.30
2022-09-25T11:52:59.716Z,15.30
2022-09-25T11:55:53.379Z,15.20
2022-09-25T11:58:42.178Z,15.30
2022-09-25T12:01:26.715Z,15.30
2022-09-25T12:04:17.713Z,15.40
2022-09-25T12:06:58.148Z,15.40
2022-09-25T12:09:45.492Z,15.40
2022-09-25T12:12:24.818Z,15.40
2022-09-25T12:15:01.808Z,15.50
2022-09-25T12:17:37.960Z,15.50
2022-09-25T12:20:16.481Z,15.50
2022-09-25T12:22:56.043Z,15.60
2022-09-25T12:25:42.028Z,15.60
2022-09-25T12:28:19.298Z,15.50
2022-09-25T12:31:00.387Z,15.50
2022-09-25T12:33:39.461Z,15.50
2022-09-25T12:36:16.135Z,15.50
2022-09-25T12:38:53.207Z,15.60
2022-09-25T12:41:27.137Z,15.60
2022-09-25T12:44:02.934Z,15.60
2022-09-25T12:46:37.995Z,15.70
2022-09-25T12:49:14.091Z,15.70
2022-09-25T12:51:46.688Z,15.90
2022-09-25T12:54:25.384Z,16.10
2022-09-25T12:56:58.793Z,16.20
2022-09-25T12:59:36.197Z,16.30
2022-09-25T13:02:12.623Z,16.20
2022-09-25T13:04:56.088Z,16.10
2022-09-25T13:07:30.294Z,16.10
2022-09-25T13:10:01.986Z,16.00
2022-09-25T13:12:35.913Z,16.00
2022-09-25T13:15:08.741Z,16.10
2022-09-25T13:17:37.786Z,16.20
2022-09-25T13:20:44.935Z,16.40
2022-09-25T13:23:16.874Z,16.50
2022-09-25T13:25:53.682Z,16.60
2022-09-25T13:28:24.567Z,16.70
2022-09-25T13:31:09.225Z,16.80
2022-09-25T13:33:52.071Z,16.90
2022-09-25T13:36:41.352Z,17.00
2022-09-25T13:39:38.738Z,17.10
2022-09-25T13:42:15.177Z,17.10
2022-09-25T13:45:14.154Z,17.10
2022-09-25T13:47:54.995Z,17.10
2022-09-25T13:50:29.889Z,17.10
2022-09-25T13:53:17.686Z,17.10
2022-09-25T13:56:21.901Z,17.10
2022-09-25T13:59:22.486Z,17.10
2022-09-25T14:01:54.972Z,17.10
2022-09-25T14:04:36.545Z,17.10
2022-09-25T14:07:20.996Z,17.10
2022-09-25T14:09:53.606Z,17.10
2022-09-25T14:12:32.634Z,17.00
2022-09-25T14:15:07.344Z,17.00
2022-09-25T14:17:37.982Z,17.10
2022-09-25T14:20:18.789Z,17.10
2022-09-25T14:22:54.029Z,17.00
2022-09-25T14:25:25.900Z,17.00
2022-09-25T14:27:55.066Z,17.00
2022-09-25T14:30:28.988Z,17.00
2022-09-25T14:33:19.082Z,17.00
2022-09-25T14:35:57.452Z,17.10
2022-09-25T14:38:53.444Z,17.10
2022-09-25T14:41:48.255Z,17.10
2022-09-25T14:44:44.695Z,17.20
2022-09-25T14:47:15.262Z,17.20
2022-09-25T14:49:47.440Z,17.30
2022-09-25T14:52:21.652Z,17.30
2022-09-25T14:54:51.444Z,17.30
2022-09-25T14:57:25.685Z,17.30
2022-09-25T14:59:58.923Z,17.30
2022-09-25T15:02:34.171Z,17.30
2022-09-25T15:05:20.921Z,17.40
2022-09-25T15:07:49.876Z,17.40
2022-09-25T15:10:28.656Z,17.40
2022-09-25T15:13:08.099Z,17.40
2022-09-25T15:15:38.728Z,17.30
2022-09-25T15:18:13.400Z,17.30
2022-09-25T15:20:48.706Z,17.20
2022-09-25T15:23:21.053Z,17.20
2022-09-25T15:25:51.672Z,17.10
2022-09-25T15:28:23.094Z,17.00
2022-09-25T15:30:57.587Z,17.00
2022-09-25T15:33:29.222Z,16.90
2022-09-25T15:35:59.300Z,16.90
2022-09-25T15:38:32.993Z,16.90
2022-09-25T15:41:01.960Z,16.90
2022-09-25T15:43:31.064Z,16.80
2022-09-25T15:46:20.308Z,16.80
2022-09-25T15:48:55.798Z,16.80
2022-09-25T15:51:28.085Z,16.80
2022-09-25T15:53:59.447Z,16.70
2022-09-25T15:56:30.176Z,16.70
2022-09-25T15:59:02.272Z,16.60
2022-09-25T16:01:51.510Z,16.60
2022-09-25T16:04:46.877Z,16.50
2022-09-25T16:07:24.260Z,16.40
2022-09-25T16:09:54.366Z,16.30
2022-09-25T16:12:29.690Z,16.20
2022-09-25T16:14:59.508Z,16.20
2022-09-25T16:17:34.026Z,16.20
2022-09-25T16:20:08.662Z,16.20
2022-09-25T16:22:46.979Z,16.20
2022-09-25T16:25:21.929Z,16.20
2022-09-25T16:27:50.714Z,16.20
2022-09-25T16:30:22.225Z,16.10
2022-09-25T16:32:53.898Z,16.00
2022-09-25T16:35:27.294Z,16.00
2022-09-25T16:37:55.958Z,15.90
2022-09-25T16:40:28.793Z,15.80
2022-09-25T16:42:59.119Z,15.70
2022-09-25T16:45:29.876Z,15.70
2022-09-25T16:47:59.373Z,15.60
2022-09-25T16:50:34.690Z,15.60
2022-09-25T16:53:04.758Z,15.60
2022-09-25T16:55:38.243Z,15.50
2022-09-25T16:58:10.167Z,15.40
2022-09-25T17:00:38.680Z,15.40
2022-09-25T17:03:07.311Z,15.30
2022-09-25T17:05:37.195Z,15.30
2022-09-25T17:08:16.702Z,15.20
2022-09-25T17:10:46.577Z,15.10
2022-09-25T17:13:16.928Z,15.10
2022-09-25T17:15:47.531Z,15.00
2022-09-25T17:18:19.079Z,15.00
2022-09-25T17:20:52.257Z,14.90
2022-09-25T17:23:22.466Z,14.90
2022-09-25T17:25:53.081Z,14.80
2022-09-25T17:28:21.545Z,14.80
2022-09-25T17:30:50.231Z,14.80
2022-09-25T17:33:21.125Z,14.70
2022-09-25T17:35:53.964Z,14.70
2022-09-25T17:38:22.746Z,14.60
2022-09-25T17:40:52.876Z,14.60
2022-09-25T17:43:21.873Z,14.50
2022-09-25T17:45:52.821Z,14.50
2022-09-25T17:48:24.433Z,14.40
2022-09-25T17:50:55.858Z,14.30
2022-09-25T17:53:27.805Z,14.20
2022-09-25T17:55:57.088Z,14.20
2022-09-25T17:58:27.013Z,14.10
2022-09-25T18:00:57.606Z,14.10
2022-09-25T18:03:26.396Z,14.00
2022-09-25T18:05:56.248Z,14.00
2022-09-25T18:08:24.839Z,13.90
2022-09-25T18:10:55.764Z,13.90
2022-09-25T18:13:24.718Z,13.80
2022-09-25T18:15:56.782Z,13.80
2022-09-25T18:18:45.967Z,13.80
2022-09-25T18:21:33.418Z,13.80
2022-09-25T18:24:02.352Z,13.80
2022-09-25T18:26:31.694Z,13.80
2022-09-25T18:29:00.469Z,13.80
2022-09-25T18:31:29.416Z,13.80
2022-09-25T18:33:57.989Z,13.80
2022-09-25T18:36:27.870Z,13.80
2022-09-25T18:38:56.438Z,13.80
2022-09-25T18:41:25.054Z,13.70
2022-09-25T18:43:53.574Z,13.70
2022-09-25T18:46:22.497Z,13.60
2022-09-25T18:48:53.417Z,13.60
2022-09-25T18:51:21.914Z,13.50
2022-09-25T18:53:52.878Z,13.50
2022-09-25T18:56:21.737Z,13.40
2022-09-25T18:58:51.763Z,13.40
2022-09-25T19:01:20.321Z,13.30
2022-09-25T19:03:51.971Z,13.30
2022-09-25T19:06:21.283Z,13.20
2022-09-25T19:08:55.750Z,13.20
2022-09-25T19:11:24.911Z,13.10
2022-09-25T19:13:53.453Z,13.10
2022-09-25T19:16:22.749Z,13.00
2022-09-25T19:18:52.694Z,13.00
2022-09-25T19:21:22.419Z,12.90
2022-09-25T19:23:51.527Z,12.90
2022-09-25T19:26:25.734Z,12.90
2022-09-25T19:28:55.122Z,12.80
2022-09-25T19:31:28.128Z,12.80
2022-09-25T19:33:57.940Z,12.80
2022-09-25T19:36:30.543Z,12.70
2022-09-25T19:39:00.227Z,12.70
2022-09-25T19:41:33.318Z,12.60
2022-09-25T19:44:09.555Z,12.60
2022-09-25T19:46:41.976Z,12.50
2022-09-25T19:49:11.172Z,12.50
2022-09-25T19:51:40.182Z,12.40
2022-09-25T19:54:11.277Z,12.40
2022-09-25T19:56:42.258Z,12.30
2022-09-25T19:59:14.390Z,12.30
2022-09-25T20:01:44.117Z,12.30
2022-09-25T20:04:18.342Z,12.30
2022-09-25T20:06:48.545Z,12.20
2022-09-25T20:09:17.675Z,12.20
2022-09-25T20:11:47.834Z,12.10
2022-09-25T20:14:16.332Z,12.10
2022-09-25T20:16:44.955Z,12.10
2022-09-25T20:19:13.609Z,12.00
2022-09-25T20:21:42.405Z,12.00
2022-09-25T20:24:11.198Z,12.00
2022-09-25T20:26:40.300Z,12.00
2022-09-25T20:29:13.018Z,12.00
2022-09-25T20:31:43.081Z,11.90
2022-09-25T20:34:14.017Z,11.90
2022-09-25T20:36:42.861Z,11.90
2022-09-25T20:39:13.661Z,11.90
2022-09-25T20:41:45.550Z,11.80
2022-09-25T20:44:15.411Z,11.80
2022-09-25T20:46:44.061Z,11.80
2022-09-25T20:49:13.169Z,11.80
2022-09-25T20:51:42.134Z,11.80
2022-09-25T20:54:11.390Z,11.80
2022-09-25T20:56:43.705Z,11.70
2022-09-25T20:59:15.326Z,11.70
2022-09-25T21:01:46.006Z,11.70
2022-09-25T21:04:18.143Z,11.70
2022-09-25T21:06:46.798Z,11.70
2022-09-25T21:09:20.422Z,11.70
2022-09-25T21:11:49.107Z,11.70
2022-09-25T21:14:20.234Z,11.60
2022-09-25T21:16:51.509Z,11.60
2022-09-25T21:19:22.153Z,11.60
2022-09-25T21:21:51.389Z,11.60
2022-09-25T21:24:21.824Z,11.60
2022-09-25T21:26:50.800Z,11.50
2022-09-25T21:29:20.112Z,11.50
2022-09-25T21:31:51.091Z,11.50
2022-09-25T21:34:20.440Z,11.50
2022-09-25T21:36:49.382Z,11.50
2022-09-25T21:39:20.869Z,11.50
2022-09-25T21:41:50.515Z,11.50
2022-09-25T21:44:23.472Z,11.50
2022-09-25T21:46:53.473Z,11.50
2022-09-25T21:49:22.989Z,11.50
2022-09-25T21:51:52.338Z,11.40
2022-09-25T21:54:20.898Z,11.40
2022-09-25T21:56:50.007Z,11.30
2022-09-25T21:59:18.835Z,11.30
2022-09-25T22:01:47.537Z,11.20
2022-09-25T22:04:17.680Z,11.20
2022-09-25T22:06:47.677Z,11.10
2022-09-25T22:09:18.178Z,11.10
2022-09-25T22:11:47.749Z,11.00
2022-09-25T22:14:17.012Z,11.00
2022-09-25T22:16:47.407Z,10.90
2022-09-25T22:19:19.155Z,10.90
2022-09-25T22:21:49.700Z,10.90
2022-09-25T22:24:18.525Z,10.90
2022-09-25T22:26:48.730Z,10.90
2022-09-25T22:29:18.218Z,10.80
2022-09-25T22:31:46.783Z,10.80
2022-09-25T22:34:19.467Z,10.70
2022-09-25T22:36:48.879Z,10.70
2022-09-25T22:39:19.701Z,10.70
2022-09-25T22:41:50.784Z,10.70
2022-09-25T22:44:19.842Z,10.70
2022-09-25T22:46:48.709Z,10.70
2022-09-25T22:49:18.849Z,10.60
2022-09-25T22:51:47.404Z,10.60
2022-09-25T22:54:16.166Z,10.60
2022-09-25T22:56:45.281Z,10.60
2022-09-25T22:59:16.094Z,10.60
2022-09-25T23:01:47.716Z,10.60
2022-09-25T23:04:21.481Z,10.60
2022-09-25T23:06:50.572Z,10.50
2022-09-25T23:09:21.680Z,10.50
2022-09-25T23:11:50.166Z,10.50
2022-09-25T23:14:20.889Z,10.50
2022-09-25T23:16:51.189Z,10.50
2022-09-25T23:19:22.389Z,10.40
2022-09-25T23:21:52.913Z,10.40
2022-09-25T23:24:22.667Z,10.40
2022-09-25T23:26:51.844Z,10.40
2022-09-25T23:29:22.517Z,10.40
2022-09-25T23:31:51.773Z,10.40
2022-09-25T23:34:21.668Z,10.30
2022-09-25T23:36:50.147Z,10.30
2022-09-25T23:39:20.575Z,10.30
2022-09-25T23:41:49.234Z,10.30
2022-09-25T23:44:17.812Z,10.30
2022-09-25T23:46:46.644Z,10.20
2022-09-25T23:49:15.760Z,10.20
2022-09-25T23:51:46.216Z,10.20
2022-09-25T23:54:15.247Z,10.20
2022-09-25T23:56:43.982Z,10.20
2022-09-25T23:59:14.458Z,10.20
